sensor_id;sensor_type;location;lat;lon;timestamp;temperature;humidity
8188;DHT22;4135;49.184;9.722;2023-05-16T00:00:10;20.60;55.50
8188;DHT22;4135;49.184;9.722;2023-05-16T00:02:40;20.60;55.50
8188;DHT22;4135;49.184;9.722;2023-05-16T00:05:09;20.60;55.50
8188;DHT22;4135;49.184;9.722;2023-05-16T00:07:44;20.60;55.50
8188;DHT22;4135;49.184;9.722;2023-05-16T00:10:13;20.50;55.40
8188;DHT22;4135;49.184;9.722;2023-05-16T00:12:43;20.50;55.40
8188;DHT22;4135;49.184;9.722;2023-05-16T00:15:12;20.60;55.50
8188;DHT22;4135;49.184;9.722;2023-05-16T00:17:42;20.50;55.40
8188;DHT22;4135;49.184;9.722;2023-05-16T00:20:14;20.50;55.40
8188;DHT22;4135;49.184;9.722;2023-05-16T00:22:45;20.60;55.40
8188;DHT22;4135;49.184;9.722;2023-05-16T00:25:15;20.50;55.60
8188;DHT22;4135;49.184;9.722;2023-05-16T00:27:45;20.60;55.40
8188;DHT22;4135;49.184;9.722;2023-05-16T00:30:14;20.60;55.40
8188;DHT22;4135;49.184;9.722;2023-05-16T00:32:44;20.50;55.40
8188;DHT22;4135;49.184;9.722;2023-05-16T00:35:14;20.60;55.40
8188;DHT22;4135;49.184;9.722;2023-05-16T00:37:43;20.50;55.30
8188;DHT22;4135;49.184;9.722;2023-05-16T00:40:13;20.50;55.30
8188;DHT22;4135;49.184;9.722;2023-05-16T00:42:42;20.50;55.30
8188;DHT22;4135;49.184;9.722;2023-05-16T00:45:12;20.50;55.30
8188;DHT22;4135;49.184;9.722;2023-05-16T00:47:42;20.50;55.30
8188;DHT22;4135;49.184;9.722;2023-05-16T00:50:11;20.50;55.30
8188;DHT22;4135;49.184;9.722;2023-05-16T00:52:41;20.50;55.30
8188;DHT22;4135;49.184;9.722;2023-05-16T00:55:11;20.50;55.30
8188;DHT22;4135;49.184;9.722;2023-05-16T00:57:41;20.50;55.30
8188;DHT22;4135;49.184;9.722;2023-05-16T01:00:11;20.50;55.30
8188;DHT22;4135;49.184;9.722;2023-05-16T01:02:44;20.50;55.30
8188;DHT22;4135;49.184;9.722;2023-05-16T01:05:14;20.50;55.20
8188;DHT22;4135;49.184;9.722;2023-05-16T01:07:44;20.50;55.30
8188;DHT22;4135;49.184;9.722;2023-05-16T01:10:14;20.50;55.20
8188;DHT22;4135;49.184;9.722;2023-05-16T01:12:50;20.50;55.30
8188;DHT22;4135;49.184;9.722;2023-05-16T01:15:29;20.50;55.30
8188;DHT22;4135;49.184;9.722;2023-05-16T01:21:06;20.50;55.20
8188;DHT22;4135;49.184;9.722;2023-05-16T01:23:48;20.50;55.20
8188;DHT22;4135;49.184;9.722;2023-05-16T01:26:25;20.50;55.30
8188;DHT22;4135;49.184;9.722;2023-05-16T01:28:55;20.50;55.20
8188;DHT22;4135;49.184;9.722;2023-05-16T01:31:24;20.50;55.20
8188;DHT22;4135;49.184;9.722;2023-05-16T01:33:55;20.50;55.20
8188;DHT22;4135;49.184;9.722;2023-05-16T01:47:13;20.50;55.20
8188;DHT22;4135;49.184;9.722;2023-05-16T01:50:14;20.50;55.20
8188;DHT22;4135;49.184;9.722;2023-05-16T01:52:52;20.50;55.20
8188;DHT22;4135;49.184;9.722;2023-05-16T01:55:45;20.50;55.20
8188;DHT22;4135;49.184;9.722;2023-05-16T01:58:17;20.50;55.20
8188;DHT22;4135;49.184;9.722;2023-05-16T02:00:47;20.50;55.20
8188;DHT22;4135;49.184;9.722;2023-05-16T02:03:17;20.50;55.20
8188;DHT22;4135;49.184;9.722;2023-05-16T02:05:46;20.50;55.20
8188;DHT22;4135;49.184;9.722;2023-05-16T02:08:16;20.50;55.20
8188;DHT22;4135;49.184;9.722;2023-05-16T02:10:46;20.50;55.20
8188;DHT22;4135;49.184;9.722;2023-05-16T02:13:15;20.70;55.40
8188;DHT22;4135;49.184;9.722;2023-05-16T02:15:45;20.40;55.10
8188;DHT22;4135;49.184;9.722;2023-05-16T02:18:14;20.40;55.10
8188;DHT22;4135;49.184;9.722;2023-05-16T02:20:45;20.50;55.20
8188;DHT22;4135;49.184;9.722;2023-05-16T02:23:14;20.50;55.20
8188;DHT22;4135;49.184;9.722;2023-05-16T02:25:44;20.40;55.10
8188;DHT22;4135;49.184;9.722;2023-05-16T02:28:13;20.40;55.10
8188;DHT22;4135;49.184;9.722;2023-05-16T02:30:43;20.50;55.20
8188;DHT22;4135;49.184;9.722;2023-05-16T02:33:12;20.40;55.10
8188;DHT22;4135;49.184;9.722;2023-05-16T02:35:42;20.40;55.10
8188;DHT22;4135;49.184;9.722;2023-05-16T02:38:11;20.40;55.10
8188;DHT22;4135;49.184;9.722;2023-05-16T02:40:49;20.40;55.10
8188;DHT22;4135;49.184;9.722;2023-05-16T02:43:18;20.40;55.10
8188;DHT22;4135;49.184;9.722;2023-05-16T02:45:48;20.40;55.10
8188;DHT22;4135;49.184;9.722;2023-05-16T02:48:18;20.40;55.10
8188;DHT22;4135;49.184;9.722;2023-05-16T02:50:47;20.40;55.10
8188;DHT22;4135;49.184;9.722;2023-05-16T02:53:17;20.40;55.10
8188;DHT22;4135;49.184;9.722;2023-05-16T02:55:46;20.40;55.10
8188;DHT22;4135;49.184;9.722;2023-05-16T02:58:16;20.40;55.10
8188;DHT22;4135;49.184;9.722;2023-05-16T03:00:45;20.40;55.10
8188;DHT22;4135;49.184;9.722;2023-05-16T03:03:15;20.40;55.10
8188;DHT22;4135;49.184;9.722;2023-05-16T03:05:44;20.40;55.10
8188;DHT22;4135;49.184;9.722;2023-05-16T03:08:14;20.40;55.10
8188;DHT22;4135;49.184;9.722;2023-05-16T03:10:44;20.40;55.10
8188;DHT22;4135;49.184;9.722;2023-05-16T03:13:13;20.40;55.10
8188;DHT22;4135;49.184;9.722;2023-05-16T03:15:44;20.40;55.10
8188;DHT22;4135;49.184;9.722;2023-05-16T03:18:14;20.40;55.10
8188;DHT22;4135;49.184;9.722;2023-05-16T03:20:44;20.40;55.10
8188;DHT22;4135;49.184;9.722;2023-05-16T03:23:13;20.40;55.10
8188;DHT22;4135;49.184;9.722;2023-05-16T03:25:43;20.40;55.10
8188;DHT22;4135;49.184;9.722;2023-05-16T03:28:16;20.40;55.10
8188;DHT22;4135;49.184;9.722;2023-05-16T03:30:46;20.40;55.10
8188;DHT22;4135;49.184;9.722;2023-05-16T03:33:15;20.40;55.10
8188;DHT22;4135;49.184;9.722;2023-05-16T03:35:45;20.40;55.10
8188;DHT22;4135;49.184;9.722;2023-05-16T03:38:15;20.40;55.10
8188;DHT22;4135;49.184;9.722;2023-05-16T03:40:45;20.40;55.10
8188;DHT22;4135;49.184;9.722;2023-05-16T03:43:14;20.40;55.10
8188;DHT22;4135;49.184;9.722;2023-05-16T03:45:44;20.40;55.10
8188;DHT22;4135;49.184;9.722;2023-05-16T03:48:13;20.40;55.10
8188;DHT22;4135;49.184;9.722;2023-05-16T03:50:43;20.40;55.10
8188;DHT22;4135;49.184;9.722;2023-05-16T03:53:13;20.40;55.10
8188;DHT22;4135;49.184;9.722;2023-05-16T03:55:42;20.40;55.10
8188;DHT22;4135;49.184;9.722;2023-05-16T03:58:12;20.40;55.10
8188;DHT22;4135;49.184;9.722;2023-05-16T04:00:41;20.40;55.10
8188;DHT22;4135;49.184;9.722;2023-05-16T04:03:11;20.40;55.10
8188;DHT22;4135;49.184;9.722;2023-05-16T04:05:41;20.40;55.00
8188;DHT22;4135;49.184;9.722;2023-05-16T04:08:10;20.40;55.70
8188;DHT22;4135;49.184;9.722;2023-05-16T04:10:40;20.40;55.10
8188;DHT22;4135;49.184;9.722;2023-05-16T04:13:09;20.40;55.10
8188;DHT22;4135;49.184;9.722;2023-05-16T04:15:39;20.40;55.10
8188;DHT22;4135;49.184;9.722;2023-05-16T04:18:08;20.40;55.10
8188;DHT22;4135;49.184;9.722;2023-05-16T04:20:40;20.40;55.10
8188;DHT22;4135;49.184;9.722;2023-05-16T04:23:10;20.40;55.10
8188;DHT22;4135;49.184;9.722;2023-05-16T04:25:40;20.40;55.10
8188;DHT22;4135;49.184;9.722;2023-05-16T04:28:10;20.40;55.10
8188;DHT22;4135;49.184;9.722;2023-05-16T04:30:40;20.40;55.10
8188;DHT22;4135;49.184;9.722;2023-05-16T04:33:09;20.40;55.10
8188;DHT22;4135;49.184;9.722;2023-05-16T04:35:39;20.40;55.10
8188;DHT22;4135;49.184;9.722;2023-05-16T04:38:08;20.40;55.00
8188;DHT22;4135;49.184;9.722;2023-05-16T04:40:38;20.40;55.00
8188;DHT22;4135;49.184;9.722;2023-05-16T04:43:10;20.40;55.00
8188;DHT22;4135;49.184;9.722;2023-05-16T04:45:39;20.40;55.00
8188;DHT22;4135;49.184;9.722;2023-05-16T04:48:11;20.40;55.00
8188;DHT22;4135;49.184;9.722;2023-05-16T04:50:40;20.40;55.00
8188;DHT22;4135;49.184;9.722;2023-05-16T04:53:10;20.40;55.00
8188;DHT22;4135;49.184;9.722;2023-05-16T04:55:39;20.40;55.00
8188;DHT22;4135;49.184;9.722;2023-05-16T04:58:09;20.40;55.00
8188;DHT22;4135;49.184;9.722;2023-05-16T05:00:38;20.40;55.00
8188;DHT22;4135;49.184;9.722;2023-05-16T05:03:08;20.40;55.00
8188;DHT22;4135;49.184;9.722;2023-05-16T05:05:37;20.40;55.00
8188;DHT22;4135;49.184;9.722;2023-05-16T05:08:07;20.40;55.00
8188;DHT22;4135;49.184;9.722;2023-05-16T05:10:36;20.40;55.00
8188;DHT22;4135;49.184;9.722;2023-05-16T05:13:06;20.40;54.90
8188;DHT22;4135;49.184;9.722;2023-05-16T05:15:35;20.40;54.90
8188;DHT22;4135;49.184;9.722;2023-05-16T05:18:05;20.40;54.90
8188;DHT22;4135;49.184;9.722;2023-05-16T05:20:34;20.40;54.90
8188;DHT22;4135;49.184;9.722;2023-05-16T05:23:04;20.40;54.90
8188;DHT22;4135;49.184;9.722;2023-05-16T05:25:35;20.40;54.90
8188;DHT22;4135;49.184;9.722;2023-05-16T05:28:04;20.40;54.90
8188;DHT22;4135;49.184;9.722;2023-05-16T05:30:34;20.40;54.90
8188;DHT22;4135;49.184;9.722;2023-05-16T05:33:04;20.50;55.00
8188;DHT22;4135;49.184;9.722;2023-05-16T05:35:33;20.40;55.50
8188;DHT22;4135;49.184;9.722;2023-05-16T05:38:03;20.40;54.90
8188;DHT22;4135;49.184;9.722;2023-05-16T05:40:32;20.40;55.00
8188;DHT22;4135;49.184;9.722;2023-05-16T05:43:02;20.50;55.00
8188;DHT22;4135;49.184;9.722;2023-05-16T05:45:31;20.50;55.00
8188;DHT22;4135;49.184;9.722;2023-05-16T05:48:01;20.50;55.00
8188;DHT22;4135;49.184;9.722;2023-05-16T05:50:30;20.50;55.00
8188;DHT22;4135;49.184;9.722;2023-05-16T05:53:00;20.50;55.00
8188;DHT22;4135;49.184;9.722;2023-05-16T05:55:29;20.50;55.00
8188;DHT22;4135;49.184;9.722;2023-05-16T05:57:59;20.50;55.00
8188;DHT22;4135;49.184;9.722;2023-05-16T06:00:28;20.50;55.00
8188;DHT22;4135;49.184;9.722;2023-05-16T06:02:58;20.50;55.00
8188;DHT22;4135;49.184;9.722;2023-05-16T06:05:28;20.50;55.00
8188;DHT22;4135;49.184;9.722;2023-05-16T06:07:57;20.50;55.00
8188;DHT22;4135;49.184;9.722;2023-05-16T06:10:27;20.50;55.00
8188;DHT22;4135;49.184;9.722;2023-05-16T06:12:56;20.50;55.00
8188;DHT22;4135;49.184;9.722;2023-05-16T06:15:26;20.50;55.00
8188;DHT22;4135;49.184;9.722;2023-05-16T06:17:55;20.50;55.00
8188;DHT22;4135;49.184;9.722;2023-05-16T06:20:25;20.50;55.00
8188;DHT22;4135;49.184;9.722;2023-05-16T06:22:54;20.60;55.10
8188;DHT22;4135;49.184;9.722;2023-05-16T06:25:24;20.50;55.10
8188;DHT22;4135;49.184;9.722;2023-05-16T06:27:54;20.50;55.10
8188;DHT22;4135;49.184;9.722;2023-05-16T06:30:23;20.50;55.10
8188;DHT22;4135;49.184;9.722;2023-05-16T06:32:53;20.50;55.10
8188;DHT22;4135;49.184;9.722;2023-05-16T06:35:22;20.50;55.10
8188;DHT22;4135;49.184;9.722;2023-05-16T06:37:52;20.50;55.10
8188;DHT22;4135;49.184;9.722;2023-05-16T06:40:21;20.50;55.10
8188;DHT22;4135;49.184;9.722;2023-05-16T06:42:51;20.50;55.10
8188;DHT22;4135;49.184;9.722;2023-05-16T06:45:20;20.50;55.10
8188;DHT22;4135;49.184;9.722;2023-05-16T06:47:50;20.50;55.10
8188;DHT22;4135;49.184;9.722;2023-05-16T06:50:20;20.50;55.10
8188;DHT22;4135;49.184;9.722;2023-05-16T06:52:49;20.50;55.10
8188;DHT22;4135;49.184;9.722;2023-05-16T06:55:19;20.50;55.10
8188;DHT22;4135;49.184;9.722;2023-05-16T06:57:48;20.50;55.10
8188;DHT22;4135;49.184;9.722;2023-05-16T07:00:18;20.50;55.10
8188;DHT22;4135;49.184;9.722;2023-05-16T07:02:48;20.50;55.10
8188;DHT22;4135;49.184;9.722;2023-05-16T07:05:18;20.50;55.10
8188;DHT22;4135;49.184;9.722;2023-05-16T07:07:47;20.50;55.10
8188;DHT22;4135;49.184;9.722;2023-05-16T07:10:17;20.50;55.10
8188;DHT22;4135;49.184;9.722;2023-05-16T07:12:47;20.50;55.10
8188;DHT22;4135;49.184;9.722;2023-05-16T07:15:17;20.50;55.10
8188;DHT22;4135;49.184;9.722;2023-05-16T07:17:46;20.50;55.10
8188;DHT22;4135;49.184;9.722;2023-05-16T07:20:16;20.50;55.10
8188;DHT22;4135;49.184;9.722;2023-05-16T07:22:45;20.50;55.10
8188;DHT22;4135;49.184;9.722;2023-05-16T07:25:15;20.50;55.20
8188;DHT22;4135;49.184;9.722;2023-05-16T07:27:44;20.50;55.10
8188;DHT22;4135;49.184;9.722;2023-05-16T07:30:14;20.50;55.10
8188;DHT22;4135;49.184;9.722;2023-05-16T07:32:44;20.50;55.10
8188;DHT22;4135;49.184;9.722;2023-05-16T07:35:13;20.50;55.10
8188;DHT22;4135;49.184;9.722;2023-05-16T07:37:43;20.50;55.10
8188;DHT22;4135;49.184;9.722;2023-05-16T07:40:12;20.50;55.10
8188;DHT22;4135;49.184;9.722;2023-05-16T07:42:42;20.60;55.10
8188;DHT22;4135;49.184;9.722;2023-05-16T07:45:12;20.60;55.70
8188;DHT22;4135;49.184;9.722;2023-05-16T07:47:42;20.60;55.10
8188;DHT22;4135;49.184;9.722;2023-05-16T07:50:12;20.60;55.10
8188;DHT22;4135;49.184;9.722;2023-05-16T07:52:41;20.60;55.20
8188;DHT22;4135;49.184;9.722;2023-05-16T07:55:11;20.60;55.20
8188;DHT22;4135;49.184;9.722;2023-05-16T07:57:40;20.60;55.80
8188;DHT22;4135;49.184;9.722;2023-05-16T08:00:12;20.60;55.30
8188;DHT22;4135;49.184;9.722;2023-05-16T08:02:41;20.60;55.30
8188;DHT22;4135;49.184;9.722;2023-05-16T08:05:11;20.60;55.30
8188;DHT22;4135;49.184;9.722;2023-05-16T08:07:41;20.60;55.30
8188;DHT22;4135;49.184;9.722;2023-05-16T08:10:10;20.50;55.30
8188;DHT22;4135;49.184;9.722;2023-05-16T08:12:40;20.50;55.40
8188;DHT22;4135;49.184;9.722;2023-05-16T08:15:09;20.50;55.30
8188;DHT22;4135;49.184;9.722;2023-05-16T08:17:39;20.50;55.30
8188;DHT22;4135;49.184;9.722;2023-05-16T08:20:09;20.50;55.40
8188;DHT22;4135;49.184;9.722;2023-05-16T08:22:39;20.50;55.40
8188;DHT22;4135;49.184;9.722;2023-05-16T08:25:09;20.50;55.40
8188;DHT22;4135;49.184;9.722;2023-05-16T08:27:38;20.50;55.40
8188;DHT22;4135;49.184;9.722;2023-05-16T08:30:09;20.50;55.40
8188;DHT22;4135;49.184;9.722;2023-05-16T08:32:40;20.50;55.40
8188;DHT22;4135;49.184;9.722;2023-05-16T08:35:09;21.10;55.90
8188;DHT22;4135;49.184;9.722;2023-05-16T08:37:39;20.50;55.40
8188;DHT22;4135;49.184;9.722;2023-05-16T08:40:09;20.50;55.40
8188;DHT22;4135;49.184;9.722;2023-05-16T08:42:39;20.50;55.40
8188;DHT22;4135;49.184;9.722;2023-05-16T08:45:09;20.50;55.40
8188;DHT22;4135;49.184;9.722;2023-05-16T08:47:39;20.50;55.40
8188;DHT22;4135;49.184;9.722;2023-05-16T08:50:11;20.50;55.30
8188;DHT22;4135;49.184;9.722;2023-05-16T08:52:41;20.50;55.40
8188;DHT22;4135;49.184;9.722;2023-05-16T08:55:12;20.50;55.40
8188;DHT22;4135;49.184;9.722;2023-05-16T08:57:44;20.50;55.40
8188;DHT22;4135;49.184;9.722;2023-05-16T09:00:14;20.50;55.30
8188;DHT22;4135;49.184;9.722;2023-05-16T09:02:44;20.50;55.40
8188;DHT22;4135;49.184;9.722;2023-05-16T09:05:15;20.50;55.30
8188;DHT22;4135;49.184;9.722;2023-05-16T09:07:45;20.50;55.30
8188;DHT22;4135;49.184;9.722;2023-05-16T09:10:15;20.50;55.30
8188;DHT22;4135;49.184;9.722;2023-05-16T09:12:44;20.50;55.30
8188;DHT22;4135;49.184;9.722;2023-05-16T09:15:17;20.50;55.30
8188;DHT22;4135;49.184;9.722;2023-05-16T09:17:47;20.50;55.30
8188;DHT22;4135;49.184;9.722;2023-05-16T09:20:18;20.50;55.30
8188;DHT22;4135;49.184;9.722;2023-05-16T09:22:56;20.50;55.30
8188;DHT22;4135;49.184;9.722;2023-05-16T09:25:27;20.50;55.30
8188;DHT22;4135;49.184;9.722;2023-05-16T09:27:59;20.50;55.30
8188;DHT22;4135;49.184;9.722;2023-05-16T09:30:31;20.50;55.30
8188;DHT22;4135;49.184;9.722;2023-05-16T09:33:01;20.50;55.30
8188;DHT22;4135;49.184;9.722;2023-05-16T09:35:31;20.50;55.30
8188;DHT22;4135;49.184;9.722;2023-05-16T09:38:00;20.50;55.30
8188;DHT22;4135;49.184;9.722;2023-05-16T09:40:30;20.50;55.30
8188;DHT22;4135;49.184;9.722;2023-05-16T09:43:04;20.50;55.30
8188;DHT22;4135;49.184;9.722;2023-05-16T09:45:35;20.50;55.30
8188;DHT22;4135;49.184;9.722;2023-05-16T09:48:06;20.60;55.40
8188;DHT22;4135;49.184;9.722;2023-05-16T09:50:37;20.50;55.30
8188;DHT22;4135;49.184;9.722;2023-05-16T09:53:06;20.50;55.30
8188;DHT22;4135;49.184;9.722;2023-05-16T09:55:36;20.50;55.30
8188;DHT22;4135;49.184;9.722;2023-05-16T09:58:06;20.50;55.30
8188;DHT22;4135;49.184;9.722;2023-05-16T10:00:35;20.50;55.30
8188;DHT22;4135;49.184;9.722;2023-05-16T10:03:07;20.50;55.30
8188;DHT22;4135;49.184;9.722;2023-05-16T10:05:37;20.50;55.30
8188;DHT22;4135;49.184;9.722;2023-05-16T10:08:06;20.50;55.30
8188;DHT22;4135;49.184;9.722;2023-05-16T10:10:37;20.50;55.30
8188;DHT22;4135;49.184;9.722;2023-05-16T10:13:07;20.50;55.40
8188;DHT22;4135;49.184;9.722;2023-05-16T10:15:39;20.50;55.30
8188;DHT22;4135;49.184;9.722;2023-05-16T10:18:10;20.50;55.40
8188;DHT22;4135;49.184;9.722;2023-05-16T10:20:43;20.50;55.40
8188;DHT22;4135;49.184;9.722;2023-05-16T10:23:16;20.60;55.50
8188;DHT22;4135;49.184;9.722;2023-05-16T10:25:48;20.60;55.60
8188;DHT22;4135;49.184;9.722;2023-05-16T10:28:18;20.60;55.60
8188;DHT22;4135;49.184;9.722;2023-05-16T10:30:47;20.60;55.70
8188;DHT22;4135;49.184;9.722;2023-05-16T10:33:18;20.60;55.80
8188;DHT22;4135;49.184;9.722;2023-05-16T10:35:47;20.60;56.00
8188;DHT22;4135;49.184;9.722;2023-05-16T10:38:18;20.60;56.10
8188;DHT22;4135;49.184;9.722;2023-05-16T10:40:49;20.70;56.20
8188;DHT22;4135;49.184;9.722;2023-05-16T10:43:24;20.70;56.40
8188;DHT22;4135;49.184;9.722;2023-05-16T10:46:06;20.70;56.50
8188;DHT22;4135;49.184;9.722;2023-05-16T10:48:40;20.70;56.50
8188;DHT22;4135;49.184;9.722;2023-05-16T10:54:04;20.70;56.60
8188;DHT22;4135;49.184;9.722;2023-05-16T10:56:35;20.70;56.60
8188;DHT22;4135;49.184;9.722;2023-05-16T10:59:21;20.70;56.70
8188;DHT22;4135;49.184;9.722;2023-05-16T11:01:53;20.70;56.80
8188;DHT22;4135;49.184;9.722;2023-05-16T11:04:53;20.70;56.80
8188;DHT22;4135;49.184;9.722;2023-05-16T11:07:24;20.70;56.90
8188;DHT22;4135;49.184;9.722;2023-05-16T11:10:09;20.70;56.90
8188;DHT22;4135;49.184;9.722;2023-05-16T11:12:45;20.70;56.90
8188;DHT22;4135;49.184;9.722;2023-05-16T11:18:06;20.70;57.00
8188;DHT22;4135;49.184;9.722;2023-05-16T11:20:37;20.70;57.00
8188;DHT22;4135;49.184;9.722;2023-05-16T11:25:53;20.60;56.90
8188;DHT22;4135;49.184;9.722;2023-05-16T11:28:25;20.60;56.90
8188;DHT22;4135;49.184;9.722;2023-05-16T11:30:57;20.60;56.90
8188;DHT22;4135;49.184;9.722;2023-05-16T11:33:30;20.60;56.90
8188;DHT22;4135;49.184;9.722;2023-05-16T11:36:06;20.60;56.90
8188;DHT22;4135;49.184;9.722;2023-05-16T11:38:36;20.60;57.40
8188;DHT22;4135;49.184;9.722;2023-05-16T11:41:07;20.60;56.90
8188;DHT22;4135;49.184;9.722;2023-05-16T11:43:42;20.60;56.90
8188;DHT22;4135;49.184;9.722;2023-05-16T11:46:13;20.60;56.90
8188;DHT22;4135;49.184;9.722;2023-05-16T11:48:42;20.60;56.90
8188;DHT22;4135;49.184;9.722;2023-05-16T11:51:17;20.60;56.80
8188;DHT22;4135;49.184;9.722;2023-05-16T11:53:48;20.60;56.80
8188;DHT22;4135;49.184;9.722;2023-05-16T11:56:19;20.60;56.80
8188;DHT22;4135;49.184;9.722;2023-05-16T11:58:50;20.60;56.80
8188;DHT22;4135;49.184;9.722;2023-05-16T12:01:20;20.60;56.80
8188;DHT22;4135;49.184;9.722;2023-05-16T12:03:55;20.50;56.80
8188;DHT22;4135;49.184;9.722;2023-05-16T12:06:28;20.60;56.80
8188;DHT22;4135;49.184;9.722;2023-05-16T12:08:59;20.50;56.80
8188;DHT22;4135;49.184;9.722;2023-05-16T12:11:32;20.50;56.80
8188;DHT22;4135;49.184;9.722;2023-05-16T12:14:02;20.50;56.80
8188;DHT22;4135;49.184;9.722;2023-05-16T12:16:31;20.60;56.90
8188;DHT22;4135;49.184;9.722;2023-05-16T12:19:02;20.50;56.80
8188;DHT22;4135;49.184;9.722;2023-05-16T12:21:33;20.50;56.80
8188;DHT22;4135;49.184;9.722;2023-05-16T12:24:03;20.50;56.80
8188;DHT22;4135;49.184;9.722;2023-05-16T12:26:33;20.50;56.80
8188;DHT22;4135;49.184;9.722;2023-05-16T12:29:03;20.50;56.80
8188;DHT22;4135;49.184;9.722;2023-05-16T12:31:38;20.50;56.80
8188;DHT22;4135;49.184;9.722;2023-05-16T12:34:18;20.50;56.80
8188;DHT22;4135;49.184;9.722;2023-05-16T12:36:51;20.50;56.80
8188;DHT22;4135;49.184;9.722;2023-05-16T12:39:21;20.50;56.70
8188;DHT22;4135;49.184;9.722;2023-05-16T12:41:51;20.50;56.70
8188;DHT22;4135;49.184;9.722;2023-05-16T12:44:21;20.50;56.70
8188;DHT22;4135;49.184;9.722;2023-05-16T12:46:51;20.50;56.70
8188;DHT22;4135;49.184;9.722;2023-05-16T12:49:23;20.50;56.70
8188;DHT22;4135;49.184;9.722;2023-05-16T12:51:55;20.50;56.70
8188;DHT22;4135;49.184;9.722;2023-05-16T12:54:27;20.50;56.70
8188;DHT22;4135;49.184;9.722;2023-05-16T12:56:56;20.50;56.70
8188;DHT22;4135;49.184;9.722;2023-05-16T12:59:26;20.50;56.70
8188;DHT22;4135;49.184;9.722;2023-05-16T13:01:57;20.50;56.70
8188;DHT22;4135;49.184;9.722;2023-05-16T13:04:26;20.50;56.60
8188;DHT22;4135;49.184;9.722;2023-05-16T13:06:56;20.50;56.50
8188;DHT22;4135;49.184;9.722;2023-05-16T13:09:26;20.50;56.50
8188;DHT22;4135;49.184;9.722;2023-05-16T13:11:55;20.50;56.50
8188;DHT22;4135;49.184;9.722;2023-05-16T13:14:25;20.50;56.50
8188;DHT22;4135;49.184;9.722;2023-05-16T13:16:55;20.60;56.50
8188;DHT22;4135;49.184;9.722;2023-05-16T13:19:24;20.50;56.50
8188;DHT22;4135;49.184;9.722;2023-05-16T13:21:54;20.50;56.40
8188;DHT22;4135;49.184;9.722;2023-05-16T13:24:24;20.50;56.40
8188;DHT22;4135;49.184;9.722;2023-05-16T13:26:53;20.50;56.40
8188;DHT22;4135;49.184;9.722;2023-05-16T13:29:23;20.50;56.40
8188;DHT22;4135;49.184;9.722;2023-05-16T13:31:52;20.50;56.40
8188;DHT22;4135;49.184;9.722;2023-05-16T13:34:22;20.50;56.40
8188;DHT22;4135;49.184;9.722;2023-05-16T13:36:51;20.50;56.40
8188;DHT22;4135;49.184;9.722;2023-05-16T13:39:21;20.50;56.40
8188;DHT22;4135;49.184;9.722;2023-05-16T13:41:51;20.50;56.30
8188;DHT22;4135;49.184;9.722;2023-05-16T13:44:21;20.50;56.40
8188;DHT22;4135;49.184;9.722;2023-05-16T13:46:50;20.50;56.30
8188;DHT22;4135;49.184;9.722;2023-05-16T13:49:20;20.50;56.30
8188;DHT22;4135;49.184;9.722;2023-05-16T13:51:50;20.50;56.30
8188;DHT22;4135;49.184;9.722;2023-05-16T13:54:20;20.50;56.30
8188;DHT22;4135;49.184;9.722;2023-05-16T13:56:50;20.50;56.20
8188;DHT22;4135;49.184;9.722;2023-05-16T13:59:20;20.50;56.20
8188;DHT22;4135;49.184;9.722;2023-05-16T14:01:50;20.50;56.20
8188;DHT22;4135;49.184;9.722;2023-05-16T14:04:19;20.50;56.20
8188;DHT22;4135;49.184;9.722;2023-05-16T14:06:49;20.50;56.20
8188;DHT22;4135;49.184;9.722;2023-05-16T14:09:18;20.50;56.10
8188;DHT22;4135;49.184;9.722;2023-05-16T14:11:48;20.50;56.20
8188;DHT22;4135;49.184;9.722;2023-05-16T14:14:17;20.50;56.10
8188;DHT22;4135;49.184;9.722;2023-05-16T14:16:47;20.50;56.20
8188;DHT22;4135;49.184;9.722;2023-05-16T14:19:16;20.50;56.10
8188;DHT22;4135;49.184;9.722;2023-05-16T14:21:46;20.50;56.10
8188;DHT22;4135;49.184;9.722;2023-05-16T14:24:15;20.50;56.00
8188;DHT22;4135;49.184;9.722;2023-05-16T14:26:45;20.50;56.00
8188;DHT22;4135;49.184;9.722;2023-05-16T14:29:14;20.50;56.00
8188;DHT22;4135;49.184;9.722;2023-05-16T14:31:44;20.50;56.00
8188;DHT22;4135;49.184;9.722;2023-05-16T14:34:13;20.50;56.00
8188;DHT22;4135;49.184;9.722;2023-05-16T14:36:43;20.50;55.90
8188;DHT22;4135;49.184;9.722;2023-05-16T14:39:12;20.50;55.90
8188;DHT22;4135;49.184;9.722;2023-05-16T14:41:42;20.50;56.00
8188;DHT22;4135;49.184;9.722;2023-05-16T14:44:12;20.50;55.90
8188;DHT22;4135;49.184;9.722;2023-05-16T14:46:41;20.50;55.90
8188;DHT22;4135;49.184;9.722;2023-05-16T14:49:11;20.50;55.90
8188;DHT22;4135;49.184;9.722;2023-05-16T14:51:40;20.50;55.90
8188;DHT22;4135;49.184;9.722;2023-05-16T14:54:13;20.50;55.90
8188;DHT22;4135;49.184;9.722;2023-05-16T14:56:44;20.50;55.90
8188;DHT22;4135;49.184;9.722;2023-05-16T14:59:13;20.50;55.90
8188;DHT22;4135;49.184;9.722;2023-05-16T15:01:43;20.50;55.90
8188;DHT22;4135;49.184;9.722;2023-05-16T15:04:13;20.50;55.90
8188;DHT22;4135;49.184;9.722;2023-05-16T15:06:42;20.50;55.80
8188;DHT22;4135;49.184;9.722;2023-05-16T15:09:12;20.50;55.80
8188;DHT22;4135;49.184;9.722;2023-05-16T15:11:42;20.50;55.80
8188;DHT22;4135;49.184;9.722;2023-05-16T15:14:11;20.50;55.80
8188;DHT22;4135;49.184;9.722;2023-05-16T15:16:41;20.50;55.80
8188;DHT22;4135;49.184;9.722;2023-05-16T15:19:11;20.50;55.80
8188;DHT22;4135;49.184;9.722;2023-05-16T15:21:40;20.50;55.80
8188;DHT22;4135;49.184;9.722;2023-05-16T15:24:10;20.50;55.70
8188;DHT22;4135;49.184;9.722;2023-05-16T15:26:40;20.50;55.80
8188;DHT22;4135;49.184;9.722;2023-05-16T15:29:10;20.50;55.70
8188;DHT22;4135;49.184;9.722;2023-05-16T15:31:39;20.50;55.70
8188;DHT22;4135;49.184;9.722;2023-05-16T15:34:09;20.50;55.70
8188;DHT22;4135;49.184;9.722;2023-05-16T15:36:39;20.50;55.70
8188;DHT22;4135;49.184;9.722;2023-05-16T15:39:09;20.50;55.70
8188;DHT22;4135;49.184;9.722;2023-05-16T15:41:39;20.50;55.70
8188;DHT22;4135;49.184;9.722;2023-05-16T15:44:08;20.50;55.70
8188;DHT22;4135;49.184;9.722;2023-05-16T15:46:38;20.50;55.70
8188;DHT22;4135;49.184;9.722;2023-05-16T15:49:07;20.50;55.60
8188;DHT22;4135;49.184;9.722;2023-05-16T15:51:37;20.50;55.60
8188;DHT22;4135;49.184;9.722;2023-05-16T15:54:07;20.50;55.60
8188;DHT22;4135;49.184;9.722;2023-05-16T15:56:36;20.50;55.60
8188;DHT22;4135;49.184;9.722;2023-05-16T15:59:06;20.50;55.60
8188;DHT22;4135;49.184;9.722;2023-05-16T16:01:36;20.50;55.60
8188;DHT22;4135;49.184;9.722;2023-05-16T16:04:05;20.50;55.60
8188;DHT22;4135;49.184;9.722;2023-05-16T16:06:35;20.50;55.60
8188;DHT22;4135;49.184;9.722;2023-05-16T16:09:04;20.50;55.60
8188;DHT22;4135;49.184;9.722;2023-05-16T16:11:34;20.50;55.50
8188;DHT22;4135;49.184;9.722;2023-05-16T16:14:04;20.40;55.50
8188;DHT22;4135;49.184;9.722;2023-05-16T16:16:33;20.50;55.50
8188;DHT22;4135;49.184;9.722;2023-05-16T16:19:06;20.40;55.40
8188;DHT22;4135;49.184;9.722;2023-05-16T16:21:35;20.50;55.50
8188;DHT22;4135;49.184;9.722;2023-05-16T16:24:05;20.40;55.40
8188;DHT22;4135;49.184;9.722;2023-05-16T16:26:35;20.40;55.40
8188;DHT22;4135;49.184;9.722;2023-05-16T16:29:04;20.50;55.50
8188;DHT22;4135;49.184;9.722;2023-05-16T16:31:34;20.50;55.40
8188;DHT22;4135;49.184;9.722;2023-05-16T16:34:04;20.40;55.40
8188;DHT22;4135;49.184;9.722;2023-05-16T16:36:33;20.40;55.30
8188;DHT22;4135;49.184;9.722;2023-05-16T16:39:03;20.40;55.30
8188;DHT22;4135;49.184;9.722;2023-05-16T16:41:33;20.40;55.30
8188;DHT22;4135;49.184;9.722;2023-05-16T16:44:03;20.40;55.30